Time;durP1;ratioP1;P1;durP2;ratioP2;P2;SDS_P1;SDS_P2;PMS_P1;PMS_P2;Temp;Humidity;BMP_temperature;BMP_pressure;BME280_temperature;BME280_humidity;BME280_pressure;Samples;Min_cycle;Max_cycle;Signal;HPM_P1;HPM_P2
2021/10/08 00:02:22;;;;;;;5.25;4.75;;;9.60;99.90;;;10.47;92.72;98999.88;5195026;28;20293;-58
2021/10/08 00:04:55;;;;;;;5.35;4.95;;;9.60;99.90;;;10.39;92.23;99000.97;5196284;28;20701;-57
2021/10/08 00:07:28;;;;;;;5.63;5.22;;;9.50;99.90;;;10.33;92.83;99001.41;5197881;28;20289;-63
2021/10/08 00:10:01;;;;;;;5.10;4.70;;;9.50;99.90;;;10.30;91.66;99005.34;5192931;28;20222;-62
2021/10/08 00:12:35;;;;;;;5.32;4.93;;;9.40;99.90;;;10.21;92.34;98995.28;5194874;28;20237;-58
2021/10/08 00:15:11;;;;;;;5.03;4.63;;;9.40;99.90;;;10.15;92.83;98999.94;5203157;28;20620;-58
2021/10/08 00:17:44;;;;;;;5.47;5.07;;;9.30;99.90;;;10.13;92.41;99004.06;5201912;28;20293;-59
2021/10/08 00:20:18;;;;;;;5.45;5.07;;;9.30;99.90;;;10.05;91.98;99002.56;5199015;28;22078;-61
2021/10/08 00:22:51;;;;;;;5.90;5.40;;;9.20;99.90;;;10.04;92.87;99001.66;5187898;28;20201;-60
2021/10/08 00:25:24;;;;;;;5.47;5.07;;;9.20;99.90;;;10.00;92.72;98998.75;5200111;28;20201;-58
2021/10/08 00:27:57;;;;;;;5.00;4.60;;;9.10;99.90;;;9.90;92.56;98997.13;5201509;28;20222;-60
2021/10/08 00:30:32;;;;;;;5.30;4.80;;;9.10;99.90;;;9.89;92.97;98996.25;5193546;28;20279;-58
2021/10/08 00:33:05;;;;;;;5.30;4.80;;;9.00;99.90;;;9.88;93.03;98997.03;5198261;28;20200;-58
2021/10/08 00:35:38;;;;;;;4.93;4.63;;;9.00;99.90;;;9.84;92.46;99006.88;5202116;28;20224;-59
2021/10/08 00:38:11;;;;;;;5.38;4.97;;;9.00;99.90;;;9.82;93.04;98986.34;5196410;28;20203;-58
2021/10/08 00:40:47;;;;;;;4.97;4.57;;;9.00;99.90;;;9.80;92.72;99003.19;5201663;28;20229;-60
2021/10/08 00:43:22;;;;;;;5.50;5.10;;;9.00;99.90;;;9.76;92.83;98992.59;5196157;28;20206;-60
2021/10/08 00:45:57;;;;;;;4.50;4.20;;;8.90;99.90;;;9.74;93.01;98987.41;5196784;28;20203;-61
2021/10/08 00:48:30;;;;;;;5.00;4.60;;;8.90;99.90;;;9.73;92.72;98988.19;5198051;28;20245;-58
2021/10/08 00:51:03;;;;;;;4.95;4.55;;;8.90;99.90;;;9.66;93.30;98985.91;5193436;28;20740;-60
2021/10/08 00:53:36;;;;;;;5.28;4.78;;;8.80;99.90;;;9.64;93.56;98978.16;5204909;28;20304;-57
2021/10/08 00:56:10;;;;;;;5.75;5.18;;;8.80;99.90;;;9.59;93.27;98983.66;5191730;28;20209;-60
2021/10/08 00:58:44;;;;;;;5.10;4.80;;;8.80;99.90;;;9.59;92.92;98983.66;5197127;28;20589;-59
2021/10/08 01:01:18;;;;;;;4.97;4.57;;;8.80;99.90;;;9.52;93.12;98986.47;5202354;28;20208;-57
2021/10/08 01:03:53;;;;;;;4.93;4.55;;;8.70;99.90;;;9.49;93.26;98982.03;5202351;28;20208;-58
2021/10/08 01:06:26;;;;;;;5.18;4.78;;;8.70;99.90;;;9.46;93.60;98980.09;5203109;28;20516;-60
2021/10/08 01:08:59;;;;;;;4.40;4.10;;;8.60;99.90;;;9.41;93.11;98983.97;5195542;28;20230;-53
2021/10/08 01:11:32;;;;;;;4.95;4.65;;;8.60;99.90;;;9.38;93.22;98981.16;5202405;28;20206;-59
2021/10/08 01:14:05;;;;;;;5.13;4.65;;;8.60;99.90;;;9.39;92.73;98980.41;5201888;28;20204;-64
2021/10/08 01:16:40;;;;;;;4.85;4.55;;;8.60;99.90;;;9.29;93.17;98980.44;5198152;28;20562;-56
2021/10/08 01:19:13;;;;;;;4.77;4.47;;;8.50;99.90;;;9.29;93.02;98979.53;5197142;28;20755;-57
2021/10/08 01:21:47;;;;;;;4.77;4.43;;;8.50;99.90;;;9.25;92.51;98983.53;5193205;28;20194;-58
2021/10/08 01:24:20;;;;;;;4.80;4.40;;;8.40;99.90;;;9.24;93.15;98986.81;5203738;28;20219;-56
2021/10/08 01:26:53;;;;;;;4.97;4.57;;;8.40;99.90;;;9.24;92.68;98989.38;5200564;28;20210;-61
2021/10/08 01:29:27;;;;;;;4.70;4.40;;;8.40;99.90;;;9.19;92.77;98985.59;5202921;28;20241;-57
2021/10/08 01:32:00;;;;;;;4.75;4.35;;;8.30;99.90;;;9.13;92.95;98974.84;5202249;28;20202;-59
2021/10/08 01:34:33;;;;;;;5.03;4.72;;;8.30;99.90;;;9.09;92.94;98986.47;5195333;28;20623;-58
2021/10/08 01:37:07;;;;;;;5.30;4.93;;;8.30;99.90;;;9.07;93.07;98984.56;5199013;28;20206;-60
2021/10/08 01:39:40;;;;;;;4.63;4.23;;;8.20;99.90;;;8.98;92.88;98980.50;5205222;28;20225;-58
2021/10/08 01:42:14;;;;;;;4.88;4.57;;;8.20;99.90;;;8.90;92.99;98990.84;5204469;28;20212;-58
2021/10/08 01:44:48;;;;;;;5.40;4.97;;;8.10;99.90;;;8.86;93.46;98989.72;5205022;28;20206;-58
2021/10/08 01:47:21;;;;;;;4.90;4.60;;;8.10;99.90;;;8.94;92.78;98983.59;5202170;28;20198;-63
2021/10/08 01:49:55;;;;;;;5.27;4.87;;;8.10;99.90;;;8.96;92.98;98984.59;5202403;28;20228;-56
2021/10/08 01:52:29;;;;;;;4.57;4.27;;;8.10;99.90;;;8.93;93.14;98981.81;5198367;28;20194;-60
2021/10/08 01:55:03;;;;;;;5.00;4.70;;;8.20;99.90;;;8.92;93.12;98980.00;5206291;28;20197;-57
2021/10/08 01:57:37;;;;;;;5.17;4.87;;;8.10;99.90;;;8.85;92.98;98981.97;5202144;28;20206;-55
2021/10/08 02:00:11;;;;;;;5.67;5.17;;;8.10;99.90;;;8.88;93.41;98972.88;5204221;28;20222;-60
2021/10/08 02:02:44;;;;;;;5.13;4.80;;;8.10;99.90;;;8.87;93.97;98973.66;5206295;28;20649;-56
2021/10/08 02:05:17;;;;;;;5.70;5.30;;;8.10;99.90;;;8.91;93.88;98968.03;5198141;28;20203;-58
2021/10/08 02:07:52;;;;;;;6.07;5.67;;;8.10;99.90;;;8.90;94.50;98984.13;5204010;28;20208;-60
2021/10/08 02:10:25;;;;;;;5.82;5.43;;;8.20;99.90;;;8.89;94.22;98972.09;5199129;28;20229;-59
2021/10/08 02:12:58;;;;;;;5.43;5.03;;;8.20;99.90;;;8.93;94.57;98976.72;5204500;28;20206;-57
2021/10/08 02:15:31;;;;;;;5.50;5.00;;;8.20;99.90;;;8.98;94.03;98975.41;5201835;28;20206;-60
2021/10/08 02:18:04;;;;;;;11.97;6.50;;;8.10;99.90;;;8.90;94.66;98989.22;5202242;28;20198;-60
2021/10/08 02:20:37;;;;;;;6.10;5.60;;;8.10;99.90;;;8.84;95.14;98986.13;5202909;28;20224;-61
2021/10/08 02:23:11;;;;;;;6.33;5.73;;;8.10;99.90;;;8.80;95.10;98973.91;5196810;28;20198;-58
2021/10/08 02:25:44;;;;;;;5.90;5.50;;;8.00;99.90;;;8.86;95.01;98989.72;5196670;28;20197;-56
2021/10/08 02:28:17;;;;;;;6.67;6.13;;;8.10;99.90;;;8.86;95.02;98994.81;5196103;28;20202;-60
2021/10/08 02:30:51;;;;;;;6.63;6.00;;;8.10;99.90;;;8.82;95.04;98990.25;5204371;28;20449;-64
2021/10/08 02:33:24;;;;;;;6.17;5.67;;;8.00;99.90;;;8.79;94.87;98977.25;5200463;28;20219;-60
2021/10/08 02:35:57;;;;;;;6.17;5.70;;;8.00;99.90;;;8.79;95.16;98988.31;5203129;28;20204;-58
2021/10/08 02:38:32;;;;;;;5.87;5.47;;;8.00;99.90;;;8.79;95.73;98990.00;5200988;28;20198;-58
2021/10/08 02:41:06;;;;;;;7.00;6.37;;;8.00;99.90;;;8.71;95.83;98978.28;5201421;28;20210;-57
2021/10/08 02:43:39;;;;;;;6.20;5.60;;;8.00;99.90;;;8.70;95.84;98976.47;5198860;28;20213;-58
2021/10/08 02:46:13;;;;;;;5.97;5.47;;;7.90;99.90;;;8.72;95.42;98980.03;5202608;28;20200;-60
2021/10/08 02:48:46;;;;;;;6.03;5.53;;;7.90;99.90;;;8.68;95.76;98981.44;5199735;28;20276;-58
2021/10/08 02:51:19;;;;;;;6.00;5.60;;;7.90;99.90;;;8.68;95.22;98981.44;5200641;28;20314;-60
2021/10/08 02:53:53;;;;;;;7.97;7.47;;;7.80;99.90;;;8.68;95.15;98973.81;5201898;28;20201;-60
2021/10/08 02:56:26;;;;;;;7.03;6.47;;;7.90;99.90;;;8.57;95.02;98978.00;5203725;28;20653;-57
2021/10/08 02:58:59;;;;;;;5.63;5.20;;;7.80;99.90;;;8.53;94.96;98983.63;5209510;22;20284;-62
2021/10/08 03:01:32;;;;;;;5.93;5.43;;;7.80;99.90;;;8.53;94.99;98985.28;5205818;28;20224;-60
2021/10/08 03:04:05;;;;;;;6.30;5.70;;;7.70;99.90;;;8.45;95.39;98984.66;5202243;28;20198;-61
2021/10/08 03:06:38;;;;;;;6.40;6.00;;;7.70;99.90;;;8.38;95.89;98986.50;5205929;28;20197;-61
2021/10/08 03:09:13;;;;;;;6.50;5.57;;;7.70;99.90;;;8.44;95.20;98984.50;5204312;28;20267;-62
2021/10/08 03:11:46;;;;;;;4.93;4.53;;;7.60;99.90;;;8.42;94.15;98984.41;5202872;28;20228;-61
2021/10/08 03:14:19;;;;;;;5.43;5.03;;;7.60;99.90;;;8.33;94.66;98983.59;5202956;28;20626;-61
2021/10/08 03:16:52;;;;;;;5.70;5.30;;;7.60;99.90;;;8.36;94.51;98983.84;5199855;28;20668;-60
2021/10/08 03:19:25;;;;;;;6.47;5.97;;;7.60;99.90;;;8.46;94.39;98983.88;5201384;28;20306;-61
2021/10/08 03:21:58;;;;;;;7.20;6.60;;;7.60;99.90;;;8.31;94.84;98982.56;5199187;28;20204;-61
2021/10/08 03:24:33;;;;;;;6.57;6.17;;;7.50;99.90;;;8.28;95.04;98979.75;5196735;28;20206;-61
2021/10/08 03:27:06;;;;;;;6.70;6.20;;;7.50;99.90;;;8.34;94.89;98991.34;5191556;28;20682;-61
2021/10/08 03:29:39;;;;;;;6.50;5.90;;;7.50;99.90;;;8.30;94.94;98983.34;5205209;28;20777;-61
2021/10/08 03:32:12;;;;;;;6.00;5.40;;;7.50;99.90;;;8.25;94.39;98990.59;5197978;28;20213;-62
2021/10/08 03:34:45;;;;;;;5.37;4.87;;;7.40;99.90;;;8.08;93.93;98984.06;5202753;28;20198;-62
2021/10/08 03:37:21;;;;;;;5.47;5.07;;;7.30;99.90;;;8.08;94.17;98986.59;5203219;28;20650;-60
2021/10/08 03:39:56;;;;;;;5.97;5.47;;;7.30;99.90;;;8.00;94.42;98990.16;5198478;28;20305;-61
2021/10/08 03:42:29;;;;;;;6.00;5.60;;;7.20;99.90;;;7.96;94.17;98983.03;5203197;28;20198;-62
2021/10/08 03:45:11;;;;;;;5.07;4.77;;;7.20;99.90;;;8.00;94.30;98982.50;5196685;28;20201;-62
2021/10/08 03:48:04;;;;;;;5.23;4.83;;;7.20;99.90;;;7.94;94.31;98982.00;5201189;28;20217;-62
2021/10/08 03:50:37;;;;;;;4.43;4.13;;;7.20;99.90;;;7.90;94.20;98985.06;5203134;28;20225;-61
2021/10/08 03:53:10;;;;;;;5.60;5.20;;;7.20;99.90;;;7.92;94.48;98980.09;5202861;28;20197;-62
2021/10/08 03:55:44;;;;;;;5.03;4.73;;;7.20;99.90;;;7.98;94.04;98986.56;5205426;28;20297;-62
2021/10/08 03:58:17;;;;;;;4.93;4.63;;;7.20;99.90;;;7.96;93.39;98985.56;5201886;28;20201;-62
2021/10/08 04:00:51;;;;;;;5.73;5.33;;;7.20;99.90;;;7.97;93.28;98982.25;5200632;28;20230;-62
2021/10/08 04:03:24;;;;;;;7.33;6.63;;;7.20;99.90;;;7.94;93.33;98992.19;5200971;28;20577;-62
2021/10/08 04:05:57;;;;;;;6.77;6.23;;;7.10;99.90;;;7.96;92.94;98992.31;5200213;28;20629;-61
2021/10/08 04:08:30;;;;;;;5.70;5.20;;;7.10;99.90;;;7.92;92.19;98983.50;5204239;28;20206;-62
2021/10/08 04:11:04;;;;;;;5.33;4.93;;;7.10;99.90;;;7.90;91.42;98996.13;5197648;28;20225;-62
2021/10/08 04:13:38;;;;;;;6.10;5.60;;;7.00;99.90;;;7.85;91.58;98987.19;5187706;28;20626;-61
2021/10/08 04:16:11;;;;;;;7.10;5.37;;;7.00;99.90;;;7.83;91.46;98993.81;5195488;28;20190;-61
2021/10/08 04:18:44;;;;;;;5.73;5.33;;;7.00;99.90;;;7.79;91.37;98988.34;5200259;28;20205;-62
2021/10/08 04:21:17;;;;;;;5.30;4.90;;;6.90;99.90;;;7.73;91.97;98990.34;5193722;28;20240;-62
2021/10/08 04:23:50;;;;;;;5.17;4.77;;;6.90;99.90;;;7.65;92.33;98993.13;5203506;28;20233;-61
2021/10/08 04:26:24;;;;;;;5.53;5.13;;;7.00;99.90;;;7.59;92.56;98984.97;5195625;28;20696;-62
2021/10/08 04:28:59;;;;;;;6.23;5.47;;;6.90;99.90;;;7.61;92.78;98986.00;5194798;28;20192;-62
2021/10/08 04:31:32;;;;;;;6.20;5.80;;;6.90;99.90;;;7.56;93.86;98994.88;5193741;28;20655;-62
2021/10/08 04:34:05;;;;;;;5.53;5.13;;;6.90;99.90;;;7.53;93.45;98991.19;5203305;28;20576;-62
2021/10/08 04:36:40;;;;;;;6.27;5.73;;;6.80;99.90;;;7.57;93.17;98983.03;5199855;28;20204;-61
2021/10/08 04:39:13;;;;;;;6.10;5.70;;;6.80;99.90;;;7.61;93.64;98990.16;5203785;28;20337;-62
2021/10/08 04:41:47;;;;;;;6.57;6.07;;;6.90;99.90;;;7.59;93.15;98997.69;5197118;28;20710;-60
2021/10/08 04:44:20;;;;;;;5.93;5.43;;;6.90;99.90;;;7.61;93.13;98990.16;5191351;28;20570;-61
2021/10/08 04:46:53;;;;;;;5.47;5.17;;;6.90;99.90;;;7.59;93.53;98986.63;5195491;28;20200;-62
2021/10/08 04:49:26;;;;;;;6.37;5.87;;;6.90;99.90;;;7.60;93.13;98989.28;5193690;28;20308;-62
2021/10/08 04:52:00;;;;;;;6.73;6.13;;;6.90;99.90;;;7.56;93.60;98987.25;5193569;28;20690;-61
2021/10/08 04:54:33;;;;;;;6.07;5.57;;;6.90;99.90;;;7.60;92.82;98993.47;5202432;28;20297;-62
2021/10/08 04:57:08;;;;;;;6.17;5.67;;;6.80;99.90;;;7.50;92.48;98989.25;5197048;28;20208;-62
2021/10/08 04:59:41;;;;;;;6.60;6.10;;;6.80;99.90;;;7.52;93.33;98985.16;5204277;28;20892;-62
2021/10/08 05:02:14;;;;;;;6.87;6.37;;;6.80;99.90;;;7.51;92.88;98985.94;5200227;28;20673;-62
2021/10/08 05:04:47;;;;;;;7.60;7.00;;;6.80;99.90;;;7.51;92.56;98992.69;5198477;28;20284;-60
2021/10/08 05:07:20;;;;;;;6.70;6.20;;;6.80;99.90;;;7.42;92.87;98988.56;5203442;28;20228;-61
2021/10/08 05:09:53;;;;;;;6.97;6.43;;;6.70;99.90;;;7.43;93.46;98989.47;5201829;28;20308;-62
2021/10/08 05:12:28;;;;;;;6.37;5.97;;;6.80;99.90;;;7.49;92.91;98986.56;5205325;28;20712;-62
2021/10/08 05:15:01;;;;;;;7.20;6.60;;;6.70;99.90;;;7.52;92.19;98990.25;5201251;28;20197;-60
2021/10/08 05:17:34;;;;;;;6.80;6.30;;;6.70;99.90;;;7.50;92.03;98979.06;5204880;28;20292;-62
2021/10/08 05:20:09;;;;;;;6.30;5.83;;;6.70;99.90;;;7.45;92.63;98981.22;5203253;28;20689;-62
2021/10/08 05:22:42;;;;;;;6.80;6.13;;;6.70;99.90;;;7.45;92.10;98985.41;5203981;28;20316;-62
2021/10/08 05:25:16;;;;;;;7.43;6.83;;;6.70;99.90;;;7.37;92.94;98983.84;5199541;28;20212;-62
2021/10/08 05:27:50;;;;;;;7.40;6.80;;;6.60;99.90;;;7.31;92.80;98973.13;5204992;28;20212;-62
2021/10/08 05:30:23;;;;;;;7.37;6.57;;;6.60;99.90;;;7.31;93.44;98975.69;5202140;28;20229;-63
2021/10/08 05:32:56;;;;;;;8.10;7.40;;;6.60;99.90;;;7.32;93.71;98974.91;5191813;28;20220;-60
2021/10/08 05:35:29;;;;;;;7.30;6.80;;;6.70;99.90;;;7.37;93.85;98983.84;5202387;28;20356;-62
2021/10/08 05:38:02;;;;;;;8.67;7.80;;;6.60;99.90;;;7.36;93.72;98977.88;5195729;28;20201;-61
2021/10/08 05:40:36;;;;;;;8.47;7.87;;;6.70;99.90;;;7.37;93.47;98986.38;5194327;28;20296;-61
2021/10/08 05:43:10;;;;;;;7.67;7.17;;;6.70;99.90;;;7.40;93.56;98985.00;5197865;28;20202;-62
2021/10/08 05:45:43;;;;;;;8.30;7.70;;;6.70;99.90;;;7.40;93.70;98979.91;5194768;28;20212;-61
2021/10/08 05:48:16;;;;;;;8.20;7.50;;;6.70;99.90;;;7.38;93.73;98986.53;5193783;28;20689;-61
2021/10/08 05:50:49;;;;;;;8.43;7.73;;;6.70;99.90;;;7.44;93.46;98991.28;5200889;28;20226;-61
2021/10/08 05:53:22;;;;;;;7.97;7.27;;;6.70;99.90;;;7.47;93.21;99001.72;5197317;28;20217;-61
2021/10/08 05:55:55;;;;;;;7.97;7.37;;;6.70;99.90;;;7.49;93.79;98999.28;5203031;28;20197;-62
2021/10/08 05:58:30;;;;;;;7.43;6.60;;;6.70;99.90;;;7.57;93.53;98994.09;5198229;28;20586;-62
2021/10/08 06:01:03;;;;;;;8.17;7.47;;;6.80;99.90;;;7.62;93.21;98992.84;5200120;28;20225;-61
2021/10/08 06:03:37;;;;;;;8.10;7.40;;;6.90;99.90;;;7.70;93.36;99000.25;5197348;28;20207;-62
2021/10/08 06:06:10;;;;;;;7.83;7.23;;;6.90;99.90;;;7.79;92.86;98998.50;5203453;28;20201;-61
2021/10/08 06:08:43;;;;;;;8.03;7.43;;;7.00;99.90;;;7.91;93.03;98997.00;5206588;28;20608;-62
2021/10/08 06:11:18;;;;;;;7.97;7.27;;;7.20;99.90;;;7.98;92.77;99004.41;5199392;28;20605;-61
2021/10/08 06:13:53;;;;;;;8.57;7.87;;;7.30;99.90;;;8.13;92.30;99003.19;5199053;28;20748;-62
2021/10/08 06:16:26;;;;;;;8.87;8.07;;;7.40;99.90;;;8.26;91.52;99006.75;5204861;28;20197;-62
2021/10/08 06:18:59;;;;;;;10.37;9.33;;;7.50;99.90;;;8.36;91.56;99004.22;5201863;28;20194;-62
2021/10/08 06:21:32;;;;;;;10.80;9.80;;;7.60;99.90;;;8.51;91.04;98999.56;5199214;28;20289;-62
2021/10/08 06:24:06;;;;;;;11.10;10.10;;;7.80;99.90;;;8.86;91.53;99005.00;5196130;28;20202;-61
2021/10/08 06:26:39;;;;;;;11.33;10.13;;;8.00;99.90;;;9.36;90.30;98995.47;5206360;28;20206;-61
2021/10/08 06:29:13;;;;;;;12.37;11.17;;;8.30;99.90;;;9.75;89.61;98991.72;5204245;28;20222;-61
2021/10/08 06:31:46;;;;;;;12.10;11.10;;;8.70;99.90;;;9.95;87.60;98987.28;5200481;28;20227;-62
2021/10/08 06:34:19;;;;;;;11.73;10.63;;;9.00;99.90;;;10.08;87.17;99000.25;5203919;28;20225;-61
2021/10/08 06:36:52;;;;;;;12.20;10.93;;;9.10;99.90;;;10.07;87.07;98991.69;5199060;28;20217;-61
2021/10/08 06:39:27;;;;;;;12.70;11.52;;;9.20;99.90;;;10.34;85.72;98998.06;5205476;28;20214;-61
2021/10/08 06:42:00;;;;;;;11.43;10.40;;;9.40;99.90;;;10.55;86.42;98997.88;5207163;28;20204;-61
2021/10/08 06:44:34;;;;;;;11.40;10.40;;;9.70;99.90;;;10.75;85.18;99002.84;5203487;28;20208;-61
2021/10/08 06:47:07;;;;;;;11.57;10.60;;;9.90;99.90;;;10.94;83.71;98999.09;5206205;28;20201;-62
2021/10/08 06:49:40;;;;;;;11.57;10.48;;;10.10;99.90;;;11.03;83.83;99002.34;5199822;28;20222;-62
2021/10/08 06:52:14;;;;;;;11.82;10.73;;;10.30;99.90;;;11.31;82.29;99012.03;5192347;28;20748;-62
2021/10/08 06:54:47;;;;;;;11.73;10.73;;;10.50;99.90;;;11.58;80.20;99005.44;5199026;28;20210;-62
2021/10/08 06:57:20;;;;;;;12.23;11.18;;;10.80;99.90;;;11.68;80.30;99006.22;5206530;28;20670;-62
2021/10/08 06:59:55;;;;;;;12.95;11.75;;;11.00;99.90;;;11.79;79.89;99008.63;5203941;28;20681;-61
2021/10/08 07:02:28;;;;;;;12.57;11.38;;;11.00;99.90;;;11.89;79.67;99000.84;5199778;28;20305;-62
2021/10/08 07:05:01;;;;;;;13.35;12.13;;;11.00;99.90;;;11.99;79.21;99002.38;5199040;28;20636;-62
2021/10/08 07:07:34;;;;;;;12.60;11.40;;;11.10;99.90;;;12.23;78.94;99003.22;5205918;28;20214;-62
2021/10/08 07:10:08;;;;;;;12.75;11.55;;;11.30;99.90;;;12.33;78.56;99001.38;5206026;28;20221;-62
2021/10/08 07:12:41;;;;;;;12.70;11.48;;;11.50;99.90;;;12.52;76.58;99005.19;5204708;28;21011;-62
2021/10/08 07:15:17;;;;;;;12.68;11.68;;;11.70;99.90;;;12.53;77.13;99005.31;5205745;28;20198;-61
2021/10/08 07:17:54;;;;;;;13.13;11.82;;;11.70;99.90;;;12.73;76.64;99006.63;5196835;28;20202;-61
2021/10/08 07:20:29;;;;;;;12.15;11.10;;;11.90;99.90;;;12.91;76.14;99007.00;5192407;28;20622;-61
2021/10/08 07:23:02;;;;;;;12.70;11.02;;;12.10;99.90;;;13.17;75.90;99003.56;5197449;28;20201;-61
2021/10/08 07:25:36;;;;;;;11.55;10.65;;;12.30;99.90;;;13.22;74.88;99011.53;5204566;28;20212;-62
2021/10/08 07:28:09;;;;;;;11.93;10.93;;;12.30;99.90;;;13.49;73.66;99003.09;5206243;28;20204;-61
2021/10/08 07:30:43;;;;;;;12.20;11.20;;;12.70;99.90;;;13.60;72.94;99001.22;5202590;28;20678;-62
2021/10/08 07:33:16;;;;;;;11.90;10.93;;;12.80;99.90;;;13.61;72.71;99000.41;5196550;28;20588;-62
2021/10/08 07:35:51;;;;;;;12.43;11.32;;;12.80;99.90;;;13.65;73.09;98998.94;5202976;28;20236;-61
2021/10/08 07:38:24;;;;;;;12.30;11.27;;;12.90;99.90;;;13.68;72.37;98996.59;5203323;28;20202;-61
2021/10/08 07:40:57;;;;;;;12.43;11.40;;;13.00;99.90;;;13.73;73.47;98995.16;5204286;28;20252;-62
2021/10/08 07:43:30;;;;;;;11.32;10.38;;;13.00;99.90;;;14.06;72.36;98987.78;5202655;28;20301;-62
2021/10/08 07:46:04;;;;;;;11.75;10.75;;;13.40;99.90;;;14.01;71.38;98989.19;5201302;28;20281;-62
2021/10/08 07:48:39;;;;;;;12.05;10.93;;;13.40;99.90;;;14.12;72.39;98986.47;5204611;28;20292;-61
2021/10/08 07:51:12;;;;;;;11.75;10.70;;;13.50;99.90;;;14.01;71.73;98989.19;5204412;28;20308;-62
2021/10/08 07:53:45;;;;;;;11.40;10.48;;;13.40;99.90;;;14.36;71.76;98984.50;5205632;28;20228;-62
2021/10/08 07:56:18;;;;;;;11.68;10.68;;;13.70;99.90;;;14.41;71.00;98983.09;5204994;28;20229;-62
2021/10/08 07:58:51;;;;;;;11.20;10.30;;;13.70;99.90;;;14.47;70.76;98979.13;5204363;28;20202;-61
2021/10/08 08:01:25;;;;;;;12.70;11.50;;;13.80;99.90;;;14.28;71.60;98978.03;5205416;28;20216;-62
2021/10/08 08:03:59;;;;;;;12.05;10.88;;;13.60;99.90;;;14.15;72.08;98985.78;5193569;28;20206;-62
2021/10/08 08:06:32;;;;;;;12.02;10.90;;;13.50;99.90;;;14.00;72.62;98975.44;5184831;28;20209;-61
2021/10/08 08:09:05;;;;;;;11.05;10.05;;;13.40;99.90;;;14.16;72.73;98982.41;5199748;28;20312;-62
2021/10/08 08:11:38;;;;;;;11.82;10.63;;;13.40;99.90;;;14.08;72.00;98983.59;5205760;28;20645;-62
2021/10/08 08:14:12;;;;;;;12.27;11.13;;;13.40;99.90;;;13.93;72.25;98975.84;5203136;28;20210;-61
2021/10/08 08:16:46;;;;;;;10.80;9.98;;;13.20;99.90;;;13.87;74.15;98976.34;5205214;28;20574;-61
2021/10/08 08:19:19;;;;;;;10.93;9.98;;;13.10;99.90;;;14.00;73.24;98977.13;5196152;28;20764;-62
2021/10/08 08:21:52;;;;;;;12.00;11.00;;;13.20;99.90;;;14.00;73.46;98972.88;5200339;28;20202;-61
2021/10/08 08:24:25;;;;;;;11.77;10.77;;;13.20;99.90;;;14.08;74.03;98968.19;5205655;28;20209;-62
2021/10/08 08:26:59;;;;;;;12.55;11.35;;;13.30;99.90;;;14.17;73.28;98971.34;5204257;28;20209;-61
2021/10/08 08:29:32;;;;;;;12.07;10.98;;;13.30;99.90;;;14.14;73.55;98977.19;5195984;28;20218;-62
2021/10/08 08:32:07;;;;;;;12.02;10.93;;;13.20;99.90;;;13.92;73.48;98974.97;5204158;28;20194;-61
2021/10/08 08:34:40;;;;;;;11.90;10.82;;;13.00;99.90;;;13.93;74.07;98975.84;5204719;28;20197;-62
2021/10/08 08:37:13;;;;;;;11.25;10.25;;;13.10;99.90;;;14.11;73.85;98976.13;5204577;28;20206;-61
2021/10/08 08:39:46;;;;;;;11.65;10.55;;;13.20;99.90;;;13.87;74.67;98978.03;5199528;28;20256;-62
2021/10/08 08:42:19;;;;;;;12.25;11.15;;;13.00;99.90;;;13.84;74.57;98980.44;5203456;28;20233;-62
2021/10/08 08:44:52;;;;;;;12.90;11.70;;;13.00;99.90;;;13.94;73.91;98975.97;5203193;28;20666;-61
2021/10/08 08:47:27;;;;;;;12.20;11.07;;;13.10;99.90;;;13.84;75.27;98977.84;5201241;28;20691;-62
2021/10/08 08:50:00;;;;;;;12.27;11.05;;;13.10;99.90;;;13.81;74.54;98975.97;5200279;28;20703;-61
2021/10/08 08:52:33;;;;;;;12.30;11.20;;;13.00;99.90;;;13.70;75.49;98984.69;5196889;28;20226;-62
2021/10/08 08:55:07;;;;;;;11.93;10.85;;;12.90;99.90;;;13.93;74.87;98979.31;5197275;28;20252;-62
2021/10/08 08:57:40;;;;;;;12.43;11.23;;;13.10;99.90;;;13.85;75.18;98975.41;5194785;28;20205;-61
2021/10/08 09:00:18;;;;;;;11.88;10.80;;;13.10;99.90;;;13.78;75.61;98974.91;5195474;28;20244;-61
2021/10/08 09:02:58;;;;;;;10.05;9.20;;;13.10;99.90;;;13.93;75.80;98970.72;5196434;28;20197;-62
2021/10/08 09:05:34;;;;;;;12.02;10.23;;;13.10;99.90;;;13.93;74.33;98978.41;5196575;28;20202;-61
2021/10/08 09:08:11;;;;;;;10.93;10.02;;;13.10;99.90;;;14.14;74.43;98981.44;5196402;28;20626;-61
2021/10/08 09:10:46;;;;;;;11.13;9.98;;;13.40;99.90;;;14.12;74.80;98973.63;5196104;28;20228;-65
2021/10/08 09:13:21;;;;;;;11.48;10.48;;;13.30;99.90;;;14.05;73.83;98970.56;5196882;28;20213;-62
2021/10/08 09:15:57;;;;;;;11.05;10.05;;;13.40;99.90;;;14.28;72.74;98965.16;5193805;28;20212;-61
2021/10/08 09:18:33;;;;;;;10.90;9.95;;;13.60;99.90;;;13.96;74.20;98971.81;5199532;28;20208;-61
2021/10/08 09:21:09;;;;;;;10.85;9.93;;;13.30;99.90;;;13.97;74.77;98971.00;5195945;28;20321;-62
2021/10/08 09:23:46;;;;;;;10.52;9.63;;;13.30;99.90;;;13.96;75.90;98968.31;5197951;28;20300;-62
2021/10/08 09:26:22;;;;;;;9.90;9.00;;;13.20;99.90;;;14.12;75.72;98965.91;5196575;28;20201;-62
2021/10/08 09:28:57;;;;;;;10.75;9.85;;;13.30;99.90;;;14.23;76.06;98970.81;5196754;28;20583;-62
2021/10/08 09:31:41;;;;;;;11.10;10.00;;;13.50;99.90;;;14.24;74.35;98967.44;5197638;28;20263;-62
2021/10/08 09:34:18;;;;;;;10.15;9.35;;;13.40;99.90;;;14.26;74.83;98976.16;5196080;28;20228;-61
2021/10/08 09:36:57;;;;;;;10.23;9.23;;;13.50;99.90;;;14.45;74.30;98966.19;5194914;28;20696;-62
2021/10/08 09:39:32;;;;;;;10.50;9.60;;;13.60;99.90;;;14.46;73.11;98974.78;5193979;28;20228;-62
2021/10/08 09:42:08;;;;;;;10.32;9.43;;;13.60;99.90;;;14.48;73.98;98960.31;5197644;28;20201;-61
2021/10/08 09:44:47;;;;;;;10.65;9.63;;;13.70;99.90;;;14.46;73.77;98960.22;5197061;28;20197;-63
2021/10/08 09:47:23;;;;;;;11.48;10.38;;;13.60;99.90;;;14.51;72.97;98958.81;5195865;28;20204;-62
2021/10/08 09:50:10;;;;;;;10.68;9.35;;;13.70;99.90;;;14.45;73.34;98965.25;5197218;28;20249;-62
2021/10/08 09:52:43;;;;;;;10.47;9.40;;;13.70;99.90;;;14.50;73.69;98963.88;5197019;28;20220;-63
2021/10/08 09:55:16;;;;;;;10.93;9.93;;;13.60;99.90;;;14.64;73.82;98960.44;5194663;28;20206;-62
2021/10/08 09:57:58;;;;;;;11.10;10.20;;;13.80;99.90;;;14.53;72.93;98956.34;5205337;28;20309;-62
2021/10/08 10:00:40;;;;;;;10.77;9.77;;;13.70;99.90;;;14.35;74.30;98962.16;5199918;28;20234;-62
2021/10/08 10:03:17;;;;;;;10.63;9.60;;;13.60;99.90;;;14.52;74.03;98964.88;5200219;28;20186;-62
2021/10/08 10:05:52;;;;;;;10.43;9.35;;;13.70;99.90;;;14.58;73.96;98962.66;5202146;28;20205;-62
2021/10/08 10:08:25;;;;;;;11.27;10.27;;;13.80;99.90;;;14.63;73.76;98969.88;5200028;28;20248;-62
2021/10/08 10:10:59;;;;;;;10.57;9.60;;;13.90;99.90;;;14.80;73.77;98962.25;5199854;28;20222;-62
2021/10/08 10:13:34;;;;;;;9.93;9.05;;;14.00;99.90;;;14.76;73.63;98960.28;5198138;28;20239;-62
2021/10/08 10:16:07;;;;;;;11.88;10.88;;;14.00;99.90;;;15.07;72.55;98968.09;5198977;28;20707;-62
2021/10/08 10:18:40;;;;;;;10.00;9.20;;;14.20;99.90;;;14.98;72.77;98954.69;5198711;28;20207;-62
2021/10/08 10:21:16;;;;;;;9.38;8.60;;;14.20;99.90;;;15.09;72.29;98958.78;5201065;28;20229;-62
2021/10/08 10:23:52;;;;;;;10.63;9.63;;;14.30;99.90;;;15.13;71.59;98958.13;5207895;28;20637;-62
2021/10/08 10:26:28;;;;;;;11.40;10.25;;;14.40;99.90;;;15.19;72.69;98958.47;5203230;28;20680;-61
2021/10/08 10:29:02;;;;;;;11.10;10.20;;;14.40;99.90;;;15.06;72.47;98961.19;5207222;28;20292;-61
2021/10/08 10:31:37;;;;;;;10.05;9.20;;;14.40;99.90;;;15.26;72.14;98958.03;5202477;28;20201;-62
2021/10/08 10:34:11;;;;;;;10.80;9.90;;;14.40;99.90;;;15.25;71.72;98953.69;5205258;28;20613;-62
2021/10/08 10:36:45;;;;;;;10.63;9.63;;;14.50;99.90;;;15.23;72.74;98950.13;5202178;28;20289;-62
2021/10/08 10:39:20;;;;;;;10.52;9.70;;;14.50;99.90;;;15.39;72.36;98953.56;5198781;28;20256;-62
2021/10/08 10:42:17;;;;;;;10.18;9.38;;;14.60;99.90;;;15.67;70.68;98954.28;5198160;28;20549;-62
2021/10/08 10:45:12;;;;;;;10.98;9.98;;;14.70;99.90;;;15.63;71.43;98954.94;5200604;28;20194;-62
2021/10/08 10:47:47;;;;;;;10.60;9.60;;;14.80;99.90;;;15.58;70.99;98953.78;5206374;28;20283;-62
2021/10/08 10:50:25;;;;;;;11.95;10.85;;;14.70;99.90;;;15.75;70.51;98953.03;5205129;28;20218;-61
2021/10/08 10:53:00;;;;;;;11.35;10.32;;;14.90;99.90;;;15.79;70.38;98950.63;5200063;28;20603;-62